sensor_id;sensor_type;location;lat;lon;timestamp;temperature;humidity
59961;DHT22;55902;-37.980;-63.602;2023-11-19T00:19:13;19.80;39.70
59961;DHT22;55902;-37.980;-63.602;2023-11-19T00:21:40;19.80;39.10
59961;DHT22;55902;-37.980;-63.602;2023-11-19T00:24:07;19.70;39.00
59961;DHT22;55902;-37.980;-63.602;2023-11-19T00:26:35;19.60;39.50
59961;DHT22;55902;-37.980;-63.602;2023-11-19T00:29:01;19.60;39.30
59961;DHT22;55902;-37.980;-63.602;2023-11-19T00:31:28;19.60;39.40
59961;DHT22;55902;-37.980;-63.602;2023-11-19T00:33:56;19.50;39.60
59961;DHT22;55902;-37.980;-63.602;2023-11-19T00:36:23;19.40;40.80
59961;DHT22;55902;-37.980;-63.602;2023-11-19T00:38:50;19.40;39.50
59961;DHT22;55902;-37.980;-63.602;2023-11-19T00:41:19;19.30;38.60
59961;DHT22;55902;-37.980;-63.602;2023-11-19T00:43:46;19.30;39.80
59961;DHT22;55902;-37.980;-63.602;2023-11-19T00:46:13;19.30;40.50
59961;DHT22;55902;-37.980;-63.602;2023-11-19T00:48:41;19.30;39.30
59961;DHT22;55902;-37.980;-63.602;2023-11-19T00:51:08;19.20;39.90
59961;DHT22;55902;-37.980;-63.602;2023-11-19T00:53:35;19.20;39.70
59961;DHT22;55902;-37.980;-63.602;2023-11-19T00:56:02;19.20;39.00
59961;DHT22;55902;-37.980;-63.602;2023-11-19T00:58:29;19.20;39.00
59961;DHT22;55902;-37.980;-63.602;2023-11-19T01:00:56;19.20;41.20
59961;DHT22;55902;-37.980;-63.602;2023-11-19T01:03:23;19.20;40.70
59961;DHT22;55902;-37.980;-63.602;2023-11-19T01:05:50;19.20;39.40
59961;DHT22;55902;-37.980;-63.602;2023-11-19T01:08:18;19.20;40.10
59961;DHT22;55902;-37.980;-63.602;2023-11-19T01:10:45;19.20;40.50
59961;DHT22;55902;-37.980;-63.602;2023-11-19T01:13:12;19.10;40.20
59961;DHT22;55902;-37.980;-63.602;2023-11-19T01:15:39;19.10;40.30
59961;DHT22;55902;-37.980;-63.602;2023-11-19T01:18:07;19.10;40.40
59961;DHT22;55902;-37.980;-63.602;2023-11-19T01:20:37;19.00;40.50
59961;DHT22;55902;-37.980;-63.602;2023-11-19T01:23:03;18.90;39.90
59961;DHT22;55902;-37.980;-63.602;2023-11-19T01:25:30;18.90;39.20
59961;DHT22;55902;-37.980;-63.602;2023-11-19T01:31:19;18.70;40.80
59961;DHT22;55902;-37.980;-63.602;2023-11-19T01:33:55;18.60;41.00
59961;DHT22;55902;-37.980;-63.602;2023-11-19T01:36:22;18.50;40.60
59961;DHT22;55902;-37.980;-63.602;2023-11-19T01:38:52;18.50;40.80
59961;DHT22;55902;-37.980;-63.602;2023-11-19T01:41:34;18.40;41.00
59961;DHT22;55902;-37.980;-63.602;2023-11-19T01:44:02;18.30;40.90
59961;DHT22;55902;-37.980;-63.602;2023-11-19T01:46:42;18.30;40.70
59961;DHT22;55902;-37.980;-63.602;2023-11-19T01:49:10;18.30;40.60
59961;DHT22;55902;-37.980;-63.602;2023-11-19T01:51:42;18.20;41.50
59961;DHT22;55902;-37.980;-63.602;2023-11-19T01:54:09;18.20;41.00
59961;DHT22;55902;-37.980;-63.602;2023-11-19T01:56:39;18.20;41.10
59961;DHT22;55902;-37.980;-63.602;2023-11-19T01:59:08;18.20;41.40
59961;DHT22;55902;-37.980;-63.602;2023-11-19T02:01:36;18.20;41.40
59961;DHT22;55902;-37.980;-63.602;2023-11-19T02:04:09;18.10;41.20
59961;DHT22;55902;-37.980;-63.602;2023-11-19T02:06:39;18.00;41.80
59961;DHT22;55902;-37.980;-63.602;2023-11-19T02:09:09;17.80;42.00
59961;DHT22;55902;-37.980;-63.602;2023-11-19T02:11:38;17.70;41.00
59961;DHT22;55902;-37.980;-63.602;2023-11-19T02:14:06;17.60;41.60
59961;DHT22;55902;-37.980;-63.602;2023-11-19T02:16:33;17.50;42.30
59961;DHT22;55902;-37.980;-63.602;2023-11-19T02:19:00;17.50;42.40
59961;DHT22;55902;-37.980;-63.602;2023-11-19T02:21:27;17.50;42.40
59961;DHT22;55902;-37.980;-63.602;2023-11-19T02:23:54;17.50;42.40
59961;DHT22;55902;-37.980;-63.602;2023-11-19T02:26:39;17.40;42.00
59961;DHT22;55902;-37.980;-63.602;2023-11-19T02:29:06;17.40;42.40
59961;DHT22;55902;-37.980;-63.602;2023-11-19T02:31:34;17.40;43.10
59961;DHT22;55902;-37.980;-63.602;2023-11-19T02:34:01;17.40;42.70
59961;DHT22;55902;-37.980;-63.602;2023-11-19T02:36:28;17.40;43.30
59961;DHT22;55902;-37.980;-63.602;2023-11-19T02:38:55;17.40;42.90
59961;DHT22;55902;-37.980;-63.602;2023-11-19T02:41:22;17.40;43.10
59961;DHT22;55902;-37.980;-63.602;2023-11-19T02:43:52;17.50;43.60
59961;DHT22;55902;-37.980;-63.602;2023-11-19T02:49:35;17.40;43.60
59961;DHT22;55902;-37.980;-63.602;2023-11-19T02:52:04;17.40;43.90
59961;DHT22;55902;-37.980;-63.602;2023-11-19T02:54:36;17.40;44.20
59961;DHT22;55902;-37.980;-63.602;2023-11-19T02:57:04;17.40;43.40
59961;DHT22;55902;-37.980;-63.602;2023-11-19T02:59:31;17.40;44.30
59961;DHT22;55902;-37.980;-63.602;2023-11-19T03:02:08;17.40;44.60
59961;DHT22;55902;-37.980;-63.602;2023-11-19T03:04:41;17.30;43.50
59961;DHT22;55902;-37.980;-63.602;2023-11-19T03:07:10;17.30;44.50
59961;DHT22;55902;-37.980;-63.602;2023-11-19T03:09:37;17.30;44.70
59961;DHT22;55902;-37.980;-63.602;2023-11-19T03:12:07;17.20;45.00
59961;DHT22;55902;-37.980;-63.602;2023-11-19T03:14:34;17.10;44.90
59961;DHT22;55902;-37.980;-63.602;2023-11-19T03:17:01;17.10;44.30
59961;DHT22;55902;-37.980;-63.602;2023-11-19T03:19:29;17.10;44.20
59961;DHT22;55902;-37.980;-63.602;2023-11-19T03:21:56;17.00;45.30
59961;DHT22;55902;-37.980;-63.602;2023-11-19T03:24:23;16.90;45.50
59961;DHT22;55902;-37.980;-63.602;2023-11-19T03:26:51;16.90;45.20
59961;DHT22;55902;-37.980;-63.602;2023-11-19T03:39:23;16.70;45.70
59961;DHT22;55902;-37.980;-63.602;2023-11-19T03:41:51;16.60;46.20
59961;DHT22;55902;-37.980;-63.602;2023-11-19T03:44:18;16.60;46.00
59961;DHT22;55902;-37.980;-63.602;2023-11-19T03:46:45;16.50;46.40
59961;DHT22;55902;-37.980;-63.602;2023-11-19T03:49:13;16.50;46.60
59961;DHT22;55902;-37.980;-63.602;2023-11-19T03:51:40;16.50;46.80
59961;DHT22;55902;-37.980;-63.602;2023-11-19T03:54:07;16.40;46.90
59961;DHT22;55902;-37.980;-63.602;2023-11-19T03:56:34;16.50;46.90
59961;DHT22;55902;-37.980;-63.602;2023-11-19T03:59:01;16.50;46.90
59961;DHT22;55902;-37.980;-63.602;2023-11-19T04:01:28;16.50;46.60
59961;DHT22;55902;-37.980;-63.602;2023-11-19T04:03:55;16.40;46.60
59961;DHT22;55902;-37.980;-63.602;2023-11-19T04:06:22;16.50;46.60
59961;DHT22;55902;-37.980;-63.602;2023-11-19T04:08:49;16.50;46.70
59961;DHT22;55902;-37.980;-63.602;2023-11-19T04:11:16;16.60;46.70
59961;DHT22;55902;-37.980;-63.602;2023-11-19T04:13:43;16.60;46.60
59961;DHT22;55902;-37.980;-63.602;2023-11-19T04:16:10;16.60;46.80
59961;DHT22;55902;-37.980;-63.602;2023-11-19T04:18:40;16.60;46.70
59961;DHT22;55902;-37.980;-63.602;2023-11-19T04:21:08;16.60;45.80
59961;DHT22;55902;-37.980;-63.602;2023-11-19T04:23:35;16.60;46.50
59961;DHT22;55902;-37.980;-63.602;2023-11-19T04:26:05;16.50;46.60
59961;DHT22;55902;-37.980;-63.602;2023-11-19T04:28:33;16.50;46.40
59961;DHT22;55902;-37.980;-63.602;2023-11-19T04:31:00;16.50;46.00
59961;DHT22;55902;-37.980;-63.602;2023-11-19T04:33:27;16.50;46.70
59961;DHT22;55902;-37.980;-63.602;2023-11-19T04:35:53;16.40;46.50
59961;DHT22;55902;-37.980;-63.602;2023-11-19T04:38:20;16.40;46.40
59961;DHT22;55902;-37.980;-63.602;2023-11-19T04:40:47;16.40;46.40
59961;DHT22;55902;-37.980;-63.602;2023-11-19T04:43:14;16.30;46.10
59961;DHT22;55902;-37.980;-63.602;2023-11-19T04:45:41;16.30;45.90
59961;DHT22;55902;-37.980;-63.602;2023-11-19T04:48:08;16.30;46.00
59961;DHT22;55902;-37.980;-63.602;2023-11-19T04:50:35;16.30;46.00
59961;DHT22;55902;-37.980;-63.602;2023-11-19T04:53:02;16.20;46.10
59961;DHT22;55902;-37.980;-63.602;2023-11-19T04:55:29;16.20;45.60
59961;DHT22;55902;-37.980;-63.602;2023-11-19T04:57:56;16.20;46.40
59961;DHT22;55902;-37.980;-63.602;2023-11-19T05:03:45;16.20;46.10
59961;DHT22;55902;-37.980;-63.602;2023-11-19T05:06:13;16.20;46.70
59961;DHT22;55902;-37.980;-63.602;2023-11-19T05:08:41;16.20;46.20
59961;DHT22;55902;-37.980;-63.602;2023-11-19T05:11:08;16.10;46.90
59961;DHT22;55902;-37.980;-63.602;2023-11-19T05:13:39;16.10;46.70
59961;DHT22;55902;-37.980;-63.602;2023-11-19T05:16:06;16.00;47.20
59961;DHT22;55902;-37.980;-63.602;2023-11-19T05:18:33;16.00;46.90
59961;DHT22;55902;-37.980;-63.602;2023-11-19T05:21:26;16.00;46.60
59961;DHT22;55902;-37.980;-63.602;2023-11-19T05:23:53;15.90;46.80
59961;DHT22;55902;-37.980;-63.602;2023-11-19T05:26:21;15.90;47.10
59961;DHT22;55902;-37.980;-63.602;2023-11-19T05:28:49;15.80;47.30
59961;DHT22;55902;-37.980;-63.602;2023-11-19T05:31:17;15.80;47.60
59961;DHT22;55902;-37.980;-63.602;2023-11-19T05:33:44;15.80;47.10
59961;DHT22;55902;-37.980;-63.602;2023-11-19T05:36:12;15.70;47.60
59961;DHT22;55902;-37.980;-63.602;2023-11-19T05:38:39;15.60;48.00
59961;DHT22;55902;-37.980;-63.602;2023-11-19T05:41:07;15.60;47.00
59961;DHT22;55902;-37.980;-63.602;2023-11-19T05:43:34;15.50;48.30
59961;DHT22;55902;-37.980;-63.602;2023-11-19T05:46:01;15.50;48.10
59961;DHT22;55902;-37.980;-63.602;2023-11-19T05:48:28;15.40;48.70
59961;DHT22;55902;-37.980;-63.602;2023-11-19T05:50:55;15.40;48.60
59961;DHT22;55902;-37.980;-63.602;2023-11-19T05:53:22;15.30;48.50
59961;DHT22;55902;-37.980;-63.602;2023-11-19T05:55:49;15.30;47.80
59961;DHT22;55902;-37.980;-63.602;2023-11-19T05:58:24;15.20;48.00
59961;DHT22;55902;-37.980;-63.602;2023-11-19T06:01:00;15.20;48.30
59961;DHT22;55902;-37.980;-63.602;2023-11-19T06:03:27;15.10;48.30
59961;DHT22;55902;-37.980;-63.602;2023-11-19T06:05:54;15.10;48.60
59961;DHT22;55902;-37.980;-63.602;2023-11-19T06:08:21;15.00;48.20
59961;DHT22;55902;-37.980;-63.602;2023-11-19T06:10:48;14.90;48.50
59961;DHT22;55902;-37.980;-63.602;2023-11-19T06:13:17;14.90;47.90
59961;DHT22;55902;-37.980;-63.602;2023-11-19T06:15:44;14.80;48.30
59961;DHT22;55902;-37.980;-63.602;2023-11-19T06:18:11;14.70;49.80
59961;DHT22;55902;-37.980;-63.602;2023-11-19T06:20:40;14.70;49.20
59961;DHT22;55902;-37.980;-63.602;2023-11-19T06:23:07;14.70;49.50
59961;DHT22;55902;-37.980;-63.602;2023-11-19T06:25:34;14.60;50.30
59961;DHT22;55902;-37.980;-63.602;2023-11-19T06:28:01;14.60;48.90
59961;DHT22;55902;-37.980;-63.602;2023-11-19T06:30:28;14.60;49.00
59961;DHT22;55902;-37.980;-63.602;2023-11-19T06:32:57;14.50;49.40
59961;DHT22;55902;-37.980;-63.602;2023-11-19T06:35:24;14.50;49.90
59961;DHT22;55902;-37.980;-63.602;2023-11-19T06:37:51;14.50;50.00
59961;DHT22;55902;-37.980;-63.602;2023-11-19T06:40:18;14.40;50.00
59961;DHT22;55902;-37.980;-63.602;2023-11-19T06:42:45;14.40;49.60
59961;DHT22;55902;-37.980;-63.602;2023-11-19T06:45:12;14.40;50.40
59961;DHT22;55902;-37.980;-63.602;2023-11-19T06:47:39;14.40;50.00
59961;DHT22;55902;-37.980;-63.602;2023-11-19T06:50:09;14.30;49.60
59961;DHT22;55902;-37.980;-63.602;2023-11-19T06:52:36;14.30;50.50
59961;DHT22;55902;-37.980;-63.602;2023-11-19T06:55:04;14.30;49.70
59961;DHT22;55902;-37.980;-63.602;2023-11-19T06:57:31;14.20;50.20
59961;DHT22;55902;-37.980;-63.602;2023-11-19T06:59:59;14.20;50.80
59961;DHT22;55902;-37.980;-63.602;2023-11-19T07:02:26;14.20;50.60
59961;DHT22;55902;-37.980;-63.602;2023-11-19T07:04:53;14.10;50.30
59961;DHT22;55902;-37.980;-63.602;2023-11-19T07:07:20;14.10;50.20
59961;DHT22;55902;-37.980;-63.602;2023-11-19T07:09:47;14.10;49.60
59961;DHT22;55902;-37.980;-63.602;2023-11-19T07:12:15;14.10;50.10
59961;DHT22;55902;-37.980;-63.602;2023-11-19T07:14:42;14.10;50.80
59961;DHT22;55902;-37.980;-63.602;2023-11-19T07:17:09;14.10;51.50
59961;DHT22;55902;-37.980;-63.602;2023-11-19T07:19:36;14.00;49.80
59961;DHT22;55902;-37.980;-63.602;2023-11-19T07:22:05;14.00;50.90
59961;DHT22;55902;-37.980;-63.602;2023-11-19T07:24:33;13.90;49.90
59961;DHT22;55902;-37.980;-63.602;2023-11-19T07:27:00;13.90;49.60
59961;DHT22;55902;-37.980;-63.602;2023-11-19T07:29:29;13.90;50.20
59961;DHT22;55902;-37.980;-63.602;2023-11-19T07:31:56;13.90;49.30
59961;DHT22;55902;-37.980;-63.602;2023-11-19T07:34:23;13.90;51.20
59961;DHT22;55902;-37.980;-63.602;2023-11-19T07:36:50;13.90;51.20
59961;DHT22;55902;-37.980;-63.602;2023-11-19T07:39:18;13.90;50.80
59961;DHT22;55902;-37.980;-63.602;2023-11-19T07:41:46;13.90;52.20
59961;DHT22;55902;-37.980;-63.602;2023-11-19T07:44:13;13.90;52.20
59961;DHT22;55902;-37.980;-63.602;2023-11-19T07:46:40;13.90;52.00
59961;DHT22;55902;-37.980;-63.602;2023-11-19T07:49:08;13.90;51.10
59961;DHT22;55902;-37.980;-63.602;2023-11-19T07:51:36;14.00;52.40
59961;DHT22;55902;-37.980;-63.602;2023-11-19T07:54:03;14.00;52.00
59961;DHT22;55902;-37.980;-63.602;2023-11-19T07:56:31;14.00;52.50
59961;DHT22;55902;-37.980;-63.602;2023-11-19T07:58:58;13.90;52.80
59961;DHT22;55902;-37.980;-63.602;2023-11-19T08:01:25;14.00;52.10
59961;DHT22;55902;-37.980;-63.602;2023-11-19T08:03:52;14.00;52.40
59961;DHT22;55902;-37.980;-63.602;2023-11-19T08:06:20;14.00;51.10
59961;DHT22;55902;-37.980;-63.602;2023-11-19T08:08:47;14.00;52.20
59961;DHT22;55902;-37.980;-63.602;2023-11-19T08:14:52;14.00;51.50
59961;DHT22;55902;-37.980;-63.602;2023-11-19T08:17:19;14.00;50.60
59961;DHT22;55902;-37.980;-63.602;2023-11-19T08:19:45;14.00;50.70
59961;DHT22;55902;-37.980;-63.602;2023-11-19T08:33:42;13.90;50.90
59961;DHT22;55902;-37.980;-63.602;2023-11-19T08:36:14;13.90;51.40
59961;DHT22;55902;-37.980;-63.602;2023-11-19T08:38:41;13.80;51.00
59961;DHT22;55902;-37.980;-63.602;2023-11-19T08:41:08;13.80;51.10
59961;DHT22;55902;-37.980;-63.602;2023-11-19T08:43:36;13.80;51.00
59961;DHT22;55902;-37.980;-63.602;2023-11-19T08:46:09;13.80;50.80
59961;DHT22;55902;-37.980;-63.602;2023-11-19T08:48:36;13.80;51.60
59961;DHT22;55902;-37.980;-63.602;2023-11-19T08:51:03;13.80;51.20
59961;DHT22;55902;-37.980;-63.602;2023-11-19T08:53:30;13.80;51.60
59961;DHT22;55902;-37.980;-63.602;2023-11-19T08:55:57;13.80;51.40
59961;DHT22;55902;-37.980;-63.602;2023-11-19T08:58:24;13.80;52.50
59961;DHT22;55902;-37.980;-63.602;2023-11-19T09:00:51;13.80;51.70
59961;DHT22;55902;-37.980;-63.602;2023-11-19T09:03:19;13.80;51.40
59961;DHT22;55902;-37.980;-63.602;2023-11-19T09:05:46;13.80;51.60
59961;DHT22;55902;-37.980;-63.602;2023-11-19T09:08:13;13.80;51.40
59961;DHT22;55902;-37.980;-63.602;2023-11-19T09:10:40;13.90;52.60
59961;DHT22;55902;-37.980;-63.602;2023-11-19T09:13:07;13.80;52.70
59961;DHT22;55902;-37.980;-63.602;2023-11-19T09:15:34;13.90;52.20
59961;DHT22;55902;-37.980;-63.602;2023-11-19T09:18:01;13.90;52.40
59961;DHT22;55902;-37.980;-63.602;2023-11-19T09:20:28;14.00;51.80
59961;DHT22;55902;-37.980;-63.602;2023-11-19T09:22:58;14.00;51.50
59961;DHT22;55902;-37.980;-63.602;2023-11-19T09:25:25;14.10;51.90
59961;DHT22;55902;-37.980;-63.602;2023-11-19T09:27:52;14.10;52.10
59961;DHT22;55902;-37.980;-63.602;2023-11-19T09:30:19;14.20;52.20
59961;DHT22;55902;-37.980;-63.602;2023-11-19T09:32:46;14.20;51.80
59961;DHT22;55902;-37.980;-63.602;2023-11-19T09:35:13;14.30;51.40
59961;DHT22;55902;-37.980;-63.602;2023-11-19T09:37:43;14.30;51.30
59961;DHT22;55902;-37.980;-63.602;2023-11-19T09:40:10;14.40;51.20
59961;DHT22;55902;-37.980;-63.602;2023-11-19T09:42:44;14.40;51.90
59961;DHT22;55902;-37.980;-63.602;2023-11-19T09:45:15;14.50;51.70
59961;DHT22;55902;-37.980;-63.602;2023-11-19T09:47:46;14.50;51.10
59961;DHT22;55902;-37.980;-63.602;2023-11-19T09:50:20;14.60;51.70
59961;DHT22;55902;-37.980;-63.602;2023-11-19T09:52:47;14.70;51.60
59961;DHT22;55902;-37.980;-63.602;2023-11-19T09:55:15;14.70;51.20
59961;DHT22;55902;-37.980;-63.602;2023-11-19T09:57:42;14.80;51.60
59961;DHT22;55902;-37.980;-63.602;2023-11-19T10:00:10;14.80;50.90
59961;DHT22;55902;-37.980;-63.602;2023-11-19T10:02:39;14.90;50.30
59961;DHT22;55902;-37.980;-63.602;2023-11-19T10:05:07;14.90;51.70
59961;DHT22;55902;-37.980;-63.602;2023-11-19T10:07:34;15.00;51.30
59961;DHT22;55902;-37.980;-63.602;2023-11-19T10:10:02;15.10;50.30
59961;DHT22;55902;-37.980;-63.602;2023-11-19T10:12:31;15.20;50.80
59961;DHT22;55902;-37.980;-63.602;2023-11-19T10:14:59;15.30;51.10
59961;DHT22;55902;-37.980;-63.602;2023-11-19T10:17:32;15.30;51.30
59961;DHT22;55902;-37.980;-63.602;2023-11-19T10:19:59;15.40;51.30
59961;DHT22;55902;-37.980;-63.602;2023-11-19T10:22:27;15.50;51.00
59961;DHT22;55902;-37.980;-63.602;2023-11-19T10:24:55;15.60;51.10
59961;DHT22;55902;-37.980;-63.602;2023-11-19T10:27:27;15.70;50.80
59961;DHT22;55902;-37.980;-63.602;2023-11-19T10:29:54;15.70;50.10
59961;DHT22;55902;-37.980;-63.602;2023-11-19T10:32:21;15.90;50.20
59961;DHT22;55902;-37.980;-63.602;2023-11-19T10:34:48;16.00;50.10
59961;DHT22;55902;-37.980;-63.602;2023-11-19T10:37:33;16.00;50.10
59961;DHT22;55902;-37.980;-63.602;2023-11-19T10:40:01;16.20;49.70
59961;DHT22;55902;-37.980;-63.602;2023-11-19T10:42:31;16.20;49.60
59961;DHT22;55902;-37.980;-63.602;2023-11-19T10:44:58;16.20;49.60
59961;DHT22;55902;-37.980;-63.602;2023-11-19T10:47:25;16.30;49.10
59961;DHT22;55902;-37.980;-63.602;2023-11-19T10:49:52;16.40;49.20
59961;DHT22;55902;-37.980;-63.602;2023-11-19T11:02:27;16.90;48.80
59961;DHT22;55902;-37.980;-63.602;2023-11-19T11:04:55;17.10;48.40
59961;DHT22;55902;-37.980;-63.602;2023-11-19T11:07:23;17.20;48.30
59961;DHT22;55902;-37.980;-63.602;2023-11-19T11:09:52;17.40;48.10
59961;DHT22;55902;-37.980;-63.602;2023-11-19T11:12:21;17.60;47.70
59961;DHT22;55902;-37.980;-63.602;2023-11-19T11:14:50;17.90;47.30
59961;DHT22;55902;-37.980;-63.602;2023-11-19T11:17:18;18.10;46.90
59961;DHT22;55902;-37.980;-63.602;2023-11-19T11:19:46;18.20;46.80
59961;DHT22;55902;-37.980;-63.602;2023-11-19T11:22:15;18.30;46.50
59961;DHT22;55902;-37.980;-63.602;2023-11-19T11:33:26;18.60;45.80
59961;DHT22;55902;-37.980;-63.602;2023-11-19T11:36:07;18.70;45.30
59961;DHT22;55902;-37.980;-63.602;2023-11-19T11:38:41;18.90;45.20
59961;DHT22;55902;-37.980;-63.602;2023-11-19T11:41:21;19.20;44.80
59961;DHT22;55902;-37.980;-63.602;2023-11-19T11:43:58;19.60;44.60
59961;DHT22;55902;-37.980;-63.602;2023-11-19T11:49:03;20.50;42.70
59961;DHT22;55902;-37.980;-63.602;2023-11-19T11:57:12;21.80;41.50
59961;DHT22;55902;-37.980;-63.602;2023-11-19T12:02:11;22.60;39.10
59961;DHT22;55902;-37.980;-63.602;2023-11-19T12:04:40;23.00;39.70
59961;DHT22;55902;-37.980;-63.602;2023-11-19T12:07:12;23.20;39.10
59961;DHT22;55902;-37.980;-63.602;2023-11-19T12:09:41;23.50;39.90
59961;DHT22;55902;-37.980;-63.602;2023-11-19T12:12:28;23.80;38.80
59961;DHT22;55902;-37.980;-63.602;2023-11-19T12:15:08;23.90;37.90
59961;DHT22;55902;-37.980;-63.602;2023-11-19T12:17:43;23.90;37.60
59961;DHT22;55902;-37.980;-63.602;2023-11-19T12:20:18;24.00;38.50
59961;DHT22;55902;-37.980;-63.602;2023-11-19T12:22:46;24.40;38.50
59961;DHT22;55902;-37.980;-63.602;2023-11-19T12:25:16;24.80;37.00
59961;DHT22;55902;-37.980;-63.602;2023-11-19T12:27:51;25.20;37.00
59961;DHT22;55902;-37.980;-63.602;2023-11-19T12:30:25;25.50;37.50
59961;DHT22;55902;-37.980;-63.602;2023-11-19T12:36:13;26.10;35.20
59961;DHT22;55902;-37.980;-63.602;2023-11-19T12:38:41;26.30;35.40
59961;DHT22;55902;-37.980;-63.602;2023-11-19T12:41:09;26.60;36.40
59961;DHT22;55902;-37.980;-63.602;2023-11-19T12:43:44;26.90;36.50
59961;DHT22;55902;-37.980;-63.602;2023-11-19T12:46:21;27.20;34.80
59961;DHT22;55902;-37.980;-63.602;2023-11-19T12:48:51;27.40;34.30
59961;DHT22;55902;-37.980;-63.602;2023-11-19T12:51:19;27.60;34.30
59961;DHT22;55902;-37.980;-63.602;2023-11-19T12:53:52;27.80;33.80
59961;DHT22;55902;-37.980;-63.602;2023-11-19T12:56:24;28.10;35.90
59961;DHT22;55902;-37.980;-63.602;2023-11-19T12:58:51;28.50;34.50
59961;DHT22;55902;-37.980;-63.602;2023-11-19T13:01:19;28.50;32.80
59961;DHT22;55902;-37.980;-63.602;2023-11-19T13:03:47;28.40;33.20
59961;DHT22;55902;-37.980;-63.602;2023-11-19T13:06:20;28.30;33.30
59961;DHT22;55902;-37.980;-63.602;2023-11-19T13:08:49;28.60;33.20
59961;DHT22;55902;-37.980;-63.602;2023-11-19T13:11:34;28.70;33.60
59961;DHT22;55902;-37.980;-63.602;2023-11-19T13:14:05;28.80;33.30
59961;DHT22;55902;-37.980;-63.602;2023-11-19T13:16:37;28.70;32.80
59961;DHT22;55902;-37.980;-63.602;2023-11-19T13:19:05;29.00;33.00
59961;DHT22;55902;-37.980;-63.602;2023-11-19T13:21:32;29.20;31.70
59961;DHT22;55902;-37.980;-63.602;2023-11-19T13:23:59;29.30;31.70
59961;DHT22;55902;-37.980;-63.602;2023-11-19T13:26:29;29.40;32.30
59961;DHT22;55902;-37.980;-63.602;2023-11-19T13:28:56;29.50;32.20
59961;DHT22;55902;-37.980;-63.602;2023-11-19T13:31:23;29.80;32.10
59961;DHT22;55902;-37.980;-63.602;2023-11-19T13:33:50;29.90;31.10
59961;DHT22;55902;-37.980;-63.602;2023-11-19T13:36:17;29.70;31.50
59961;DHT22;55902;-37.980;-63.602;2023-11-19T13:38:45;29.90;33.80
59961;DHT22;55902;-37.980;-63.602;2023-11-19T13:41:13;30.10;32.00
59961;DHT22;55902;-37.980;-63.602;2023-11-19T13:43:40;30.30;32.60
59961;DHT22;55902;-37.980;-63.602;2023-11-19T13:46:07;30.30;30.20
59961;DHT22;55902;-37.980;-63.602;2023-11-19T13:48:37;29.90;29.30
59961;DHT22;55902;-37.980;-63.602;2023-11-19T13:51:04;29.60;29.80
59961;DHT22;55902;-37.980;-63.602;2023-11-19T13:53:32;29.40;30.40
59961;DHT22;55902;-37.980;-63.602;2023-11-19T13:55:59;29.30;30.20
59961;DHT22;55902;-37.980;-63.602;2023-11-19T13:58:29;29.50;31.30
59961;DHT22;55902;-37.980;-63.602;2023-11-19T14:00:56;29.40;31.10
59961;DHT22;55902;-37.980;-63.602;2023-11-19T14:03:24;29.50;30.10
59961;DHT22;55902;-37.980;-63.602;2023-11-19T14:05:51;29.60;30.70
59961;DHT22;55902;-37.980;-63.602;2023-11-19T14:08:21;30.00;31.40
59961;DHT22;55902;-37.980;-63.602;2023-11-19T14:10:48;29.90;29.80
59961;DHT22;55902;-37.980;-63.602;2023-11-19T14:13:15;29.90;30.90
59961;DHT22;55902;-37.980;-63.602;2023-11-19T14:15:43;30.20;30.70
59961;DHT22;55902;-37.980;-63.602;2023-11-19T14:18:09;30.30;29.50
59961;DHT22;55902;-37.980;-63.602;2023-11-19T14:20:39;30.40;29.90
59961;DHT22;55902;-37.980;-63.602;2023-11-19T14:23:06;30.50;31.20
59961;DHT22;55902;-37.980;-63.602;2023-11-19T14:25:33;30.50;29.80
59961;DHT22;55902;-37.980;-63.602;2023-11-19T14:28:04;30.60;29.60
59961;DHT22;55902;-37.980;-63.602;2023-11-19T14:30:31;30.60;29.40
59961;DHT22;55902;-37.980;-63.602;2023-11-19T14:32:58;30.90;30.10
59961;DHT22;55902;-37.980;-63.602;2023-11-19T14:35:25;30.80;28.90
59961;DHT22;55902;-37.980;-63.602;2023-11-19T14:37:52;31.10;30.00
59961;DHT22;55902;-37.980;-63.602;2023-11-19T14:40:19;31.20;29.10
59961;DHT22;55902;-37.980;-63.602;2023-11-19T14:42:46;31.20;28.60
59961;DHT22;55902;-37.980;-63.602;2023-11-19T14:45:13;30.90;28.70
59961;DHT22;55902;-37.980;-63.602;2023-11-19T14:47:43;30.60;28.50
59961;DHT22;55902;-37.980;-63.602;2023-11-19T14:50:10;30.50;29.30
59961;DHT22;55902;-37.980;-63.602;2023-11-19T14:52:37;30.50;28.90
59961;DHT22;55902;-37.980;-63.602;2023-11-19T14:55:04;30.50;28.70
59961;DHT22;55902;-37.980;-63.602;2023-11-19T14:57:31;30.30;28.60
59961;DHT22;55902;-37.980;-63.602;2023-11-19T14:59:58;30.10;28.90
59961;DHT22;55902;-37.980;-63.602;2023-11-19T15:02:25;29.90;29.40
59961;DHT22;55902;-37.980;-63.602;2023-11-19T15:04:52;29.90;29.50
59961;DHT22;55902;-37.980;-63.602;2023-11-19T15:07:19;30.10;30.00
59961;DHT22;55902;-37.980;-63.602;2023-11-19T15:09:47;30.10;27.90
59961;DHT22;55902;-37.980;-63.602;2023-11-19T15:12:14;30.30;28.90
59961;DHT22;55902;-37.980;-63.602;2023-11-19T15:14:42;30.40;28.60
59961;DHT22;55902;-37.980;-63.602;2023-11-19T15:17:09;30.60;28.80
59961;DHT22;55902;-37.980;-63.602;2023-11-19T15:19:37;30.50;28.10
59961;DHT22;55902;-37.980;-63.602;2023-11-19T15:22:04;30.60;28.40
59961;DHT22;55902;-37.980;-63.602;2023-11-19T15:24:32;30.80;28.50
59961;DHT22;55902;-37.980;-63.602;2023-11-19T15:26:59;30.80;28.00
59961;DHT22;55902;-37.980;-63.602;2023-11-19T15:29:26;31.20;29.60
59961;DHT22;55902;-37.980;-63.602;2023-11-19T15:31:53;31.70;29.00
59961;DHT22;55902;-37.980;-63.602;2023-11-19T15:34:20;32.10;28.40
59961;DHT22;55902;-37.980;-63.602;2023-11-19T15:36:47;32.30;27.60
59961;DHT22;55902;-37.980;-63.602;2023-11-19T15:39:14;32.20;27.70
59961;DHT22;55902;-37.980;-63.602;2023-11-19T15:41:41;32.50;28.30
59961;DHT22;55902;-37.980;-63.602;2023-11-19T15:44:08;32.80;28.20
59961;DHT22;55902;-37.980;-63.602;2023-11-19T15:46:35;33.10;28.20
59961;DHT22;55902;-37.980;-63.602;2023-11-19T15:49:02;33.20;28.20
59961;DHT22;55902;-37.980;-63.602;2023-11-19T15:51:29;33.20;27.00
59961;DHT22;55902;-37.980;-63.602;2023-11-19T15:53:56;33.10;27.70
59961;DHT22;55902;-37.980;-63.602;2023-11-19T15:56:23;33.20;27.10
59961;DHT22;55902;-37.980;-63.602;2023-11-19T15:58:50;33.40;27.50
59961;DHT22;55902;-37.980;-63.602;2023-11-19T16:01:18;33.50;26.10
59961;DHT22;55902;-37.980;-63.602;2023-11-19T16:03:45;33.50;26.70
59961;DHT22;55902;-37.980;-63.602;2023-11-19T16:06:12;33.50;26.10
59961;DHT22;55902;-37.980;-63.602;2023-11-19T16:08:39;33.60;26.10
59961;DHT22;55902;-37.980;-63.602;2023-11-19T16:11:06;33.70;26.40
59961;DHT22;55902;-37.980;-63.602;2023-11-19T16:13:35;34.10;26.90
59961;DHT22;55902;-37.980;-63.602;2023-11-19T16:16:02;34.40;26.50
59961;DHT22;55902;-37.980;-63.602;2023-11-19T16:18:31;34.70;26.60
59961;DHT22;55902;-37.980;-63.602;2023-11-19T16:20:58;34.60;25.40